createdAt,value
2023-03-02T00:01:08.431Z,102692.84
2023-03-02T00:03:39.719Z,102684.38
2023-03-02T00:06:09.662Z,102690.56
2023-03-02T00:08:38.337Z,102682.34
2023-03-02T00:11:05.309Z,102678.53
2023-03-02T00:13:35.411Z,102685.44
2023-03-02T00:16:02.381Z,102682.09
2023-03-02T00:18:29.579Z,102676.84
2023-03-02T00:20:56.471Z,102673.50
2023-03-02T00:23:24.742Z,102673.03
2023-03-02T00:25:51.714Z,102671.69
2023-03-02T00:28:18.676Z,102678.25
2023-03-02T00:30:45.580Z,102673.00
2023-03-02T00:33:12.462Z,102673.00
2023-03-02T00:35:40.434Z,102670.25
2023-03-02T00:38:08.242Z,102662.50
2023-03-02T00:40:36.837Z,102665.13
2023-03-02T00:43:04.140Z,102670.16
2023-03-02T00:45:31.145Z,102657.03
2023-03-02T00:47:58.043Z,102664.06
2023-03-02T00:50:25.020Z,102665.47
2023-03-02T00:52:52.154Z,102659.81
2023-03-02T00:55:19.437Z,102659.22
2023-03-02T00:57:55.112Z,102662.91
2023-03-02T01:00:24.252Z,102653.59
2023-03-02T01:02:51.268Z,102657.88
2023-03-02T01:05:18.475Z,102655.25
2023-03-02T01:07:45.461Z,102652.97
2023-03-02T01:10:13.059Z,102650.47
2023-03-02T01:12:40.448Z,102646.69
2023-03-02T01:15:11.036Z,102638.59
2023-03-02T01:17:39.625Z,102640.38
2023-03-02T01:20:08.871Z,102631.78
2023-03-02T01:22:35.773Z,102631.16
2023-03-02T01:25:03.424Z,102637.25
2023-03-02T01:27:30.298Z,102641.66
2023-03-02T01:29:57.321Z,102632.72
2023-03-02T01:32:25.735Z,102635.84
2023-03-02T01:34:52.717Z,102635.75
2023-03-02T01:37:20.751Z,102635.63
2023-03-02T01:39:47.738Z,102624.03
2023-03-02T01:42:14.993Z,102624.94
2023-03-02T01:44:45.065Z,102630.25
2023-03-02T01:47:17.849Z,102630.16
2023-03-02T01:49:52.933Z,102627.75
2023-03-02T01:52:20.148Z,102633.59
2023-03-02T01:54:50.372Z,102638.63
2023-03-02T01:57:23.028Z,102630.97
2023-03-02T01:59:59.577Z,102630.75
2023-03-02T02:02:27.559Z,102627.81
2023-03-02T02:04:57.282Z,102627.72
2023-03-02T02:07:24.295Z,102632.53
2023-03-02T02:09:54.176Z,102621.50
2023-03-02T02:12:23.449Z,102626.50
2023-03-02T02:14:51.460Z,102621.88
2023-03-02T02:17:19.734Z,102611.34
2023-03-02T02:20:06.359Z,102619.16
2023-03-02T02:22:49.610Z,102617.69
2023-03-02T02:25:34.762Z,102619.91
2023-03-02T02:28:08.461Z,102617.53
2023-03-02T02:30:38.004Z,102613.50
2023-03-02T02:33:06.707Z,102613.22
2023-03-02T02:35:38.457Z,102609.75
2023-03-02T02:38:08.497Z,102613.81
2023-03-02T02:40:46.408Z,102597.56
2023-03-02T02:43:20.022Z,102607.47
2023-03-02T02:45:50.953Z,102613.75
2023-03-02T02:48:23.126Z,102617.53
2023-03-02T02:50:59.941Z,102614.25
2023-03-02T02:53:34.933Z,102612.84
2023-03-02T02:56:04.278Z,102622.50
2023-03-02T02:58:40.033Z,102629.13
2023-03-02T03:01:07.863Z,102629.97
2023-03-02T03:03:39.163Z,102628.53
2023-03-02T03:06:09.313Z,102626.09
2023-03-02T03:08:57.878Z,102627.06
2023-03-02T03:11:28.739Z,102627.16
2023-03-02T03:14:08.840Z,102631.47
2023-03-02T03:16:39.245Z,102630.00
2023-03-02T03:19:15.687Z,102620.91
2023-03-02T03:21:42.891Z,102613.97
2023-03-02T03:24:10.195Z,102614.63
2023-03-02T03:26:37.278Z,102616.59
2023-03-02T03:29:06.141Z,102613.44
2023-03-02T03:31:33.802Z,102622.78
2023-03-02T03:34:01.772Z,102615.97
2023-03-02T03:36:31.248Z,102610.94
2023-03-02T03:38:59.306Z,102611.84
2023-03-02T03:41:26.846Z,102619.81
2023-03-02T03:43:53.917Z,102612.34
2023-03-02T03:46:22.487Z,102605.56
2023-03-02T03:48:49.892Z,102607.38
2023-03-02T03:51:17.581Z,102614.81
2023-03-02T03:53:44.607Z,102602.78
2023-03-02T03:56:12.254Z,102597.44
2023-03-02T03:58:39.549Z,102600.38
2023-03-02T04:01:06.650Z,102599.53
2023-03-02T04:03:34.899Z,102607.91
2023-03-02T04:06:01.876Z,102610.63
2023-03-02T04:08:28.814Z,102609.78
2023-03-02T04:10:55.735Z,102608.94
2023-03-02T04:13:22.675Z,102613.22
2023-03-02T04:15:49.643Z,102605.56
2023-03-02T04:18:16.574Z,102616.53
2023-03-02T04:20:44.810Z,102613.38
2023-03-02T04:23:12.371Z,102613.78
2023-03-02T04:25:39.399Z,102615.94
2023-03-02T04:28:06.435Z,102621.81
2023-03-02T04:30:33.397Z,102614.59
2023-03-02T04:33:00.458Z,102614.34
2023-03-02T04:35:27.489Z,102619.16
2023-03-02T04:37:56.088Z,102612.75
2023-03-02T04:40:23.359Z,102619.78
2023-03-02T04:42:50.370Z,102617.06
2023-03-02T04:45:17.905Z,102609.19
2023-03-02T04:47:44.848Z,102615.50
2023-03-02T04:50:14.702Z,102612.25
2023-03-02T04:52:42.090Z,102615.59
2023-03-02T04:55:19.986Z,102609.41
2023-03-02T04:57:47.029Z,102616.31
2023-03-02T05:00:16.321Z,102611.34
2023-03-02T05:02:43.354Z,102614.13
2023-03-02T05:05:17.745Z,102604.69
2023-03-02T05:07:45.543Z,102604.13
2023-03-02T05:10:15.621Z,102614.81
2023-03-02T05:12:55.193Z,102608.63
2023-03-02T05:15:23.474Z,102605.59
2023-03-02T05:17:50.562Z,102604.56
2023-03-02T05:20:19.278Z,102613.13
2023-03-02T05:22:46.747Z,102613.00
2023-03-02T05:25:14.942Z,102609.66
2023-03-02T05:27:41.845Z,102610.72
2023-03-02T05:30:10.755Z,102614.69
2023-03-02T05:32:37.686Z,102612.38
2023-03-02T05:35:05.804Z,102612.47
2023-03-02T05:37:33.190Z,102617.06
2023-03-02T05:40:00.694Z,102626.75
2023-03-02T05:42:28.944Z,102626.22
2023-03-02T05:44:55.982Z,102627.91
2023-03-02T05:47:22.880Z,102620.25
2023-03-02T05:49:49.783Z,102621.44
2023-03-02T05:52:16.646Z,102623.75
2023-03-02T05:54:43.507Z,102622.31
2023-03-02T05:57:10.382Z,102626.81
2023-03-02T05:59:38.593Z,102621.78
2023-03-02T06:02:05.591Z,102624.59
2023-03-02T06:04:32.524Z,102624.09
2023-03-02T06:06:59.494Z,102623.56
2023-03-02T06:09:27.376Z,102627.16
2023-03-02T06:11:54.333Z,102625.25
2023-03-02T06:14:21.251Z,102628.72
2023-03-02T06:16:49.530Z,102622.31
2023-03-02T06:19:16.579Z,102629.31
2023-03-02T06:21:43.476Z,102623.38
2023-03-02T06:24:10.353Z,102618.34
2023-03-02T06:26:37.251Z,102620.47
2023-03-02T06:29:05.511Z,102625.91
2023-03-02T06:31:32.612Z,102624.84
2023-03-02T06:34:01.212Z,102630.28
2023-03-02T06:36:28.626Z,102639.59
2023-03-02T06:38:55.550Z,102637.44
2023-03-02T06:41:22.735Z,102632.00
2023-03-02T06:43:49.696Z,102632.06
2023-03-02T06:46:16.663Z,102636.19
2023-03-02T06:48:43.646Z,102641.91
2023-03-02T06:51:12.611Z,102643.78
2023-03-02T06:53:39.587Z,102638.84
2023-03-02T06:56:07.727Z,102641.44
2023-03-02T06:58:35.127Z,102639.22
2023-03-02T07:01:02.170Z,102644.03
2023-03-02T07:03:29.245Z,102638.66
2023-03-02T07:05:56.295Z,102637.34
2023-03-02T07:08:24.605Z,102634.19
2023-03-02T07:10:51.551Z,102631.66
2023-03-02T07:13:18.594Z,102624.47
2023-03-02T07:15:45.582Z,102620.59
2023-03-02T07:18:12.718Z,102623.34
2023-03-02T07:20:39.664Z,102618.22
2023-03-02T07:23:06.937Z,102613.47
2023-03-02T07:25:36.910Z,102618.28
2023-03-02T07:28:04.547Z,102618.28
2023-03-02T07:30:31.659Z,102611.16
2023-03-02T07:32:58.618Z,102614.81
2023-03-02T07:35:25.610Z,102621.78
2023-03-02T07:37:52.852Z,102620.91
2023-03-02T07:40:19.910Z,102621.28
2023-03-02T07:42:48.215Z,102619.78
2023-03-02T07:45:16.954Z,102612.63
2023-03-02T07:47:44.008Z,102617.44
2023-03-02T07:50:11.880Z,102608.78
2023-03-02T07:52:39.532Z,102611.47
2023-03-02T07:55:07.409Z,102613.28
2023-03-02T07:57:34.675Z,102605.69
2023-03-02T08:00:04.693Z,102613.81
2023-03-02T08:02:33.437Z,102609.53
2023-03-02T08:05:00.426Z,102611.44
2023-03-02T08:07:27.396Z,102610.03
2023-03-02T08:09:54.407Z,102609.78
2023-03-02T08:12:21.411Z,102616.72
2023-03-02T08:14:48.538Z,102611.69
2023-03-02T08:17:16.764Z,102614.31
2023-03-02T08:19:43.922Z,102615.03
2023-03-02T08:22:10.946Z,102609.56
2023-03-02T08:24:38.032Z,102606.00
2023-03-02T08:27:05.141Z,102607.66
2023-03-02T08:29:32.293Z,102604.19
2023-03-02T08:31:59.944Z,102601.44
2023-03-02T08:34:28.279Z,102602.16
2023-03-02T08:36:56.823Z,102600.25
2023-03-02T08:39:24.235Z,102602.41
2023-03-02T08:41:51.680Z,102593.81
2023-03-02T08:44:20.875Z,102599.28
2023-03-02T08:46:48.871Z,102602.09
2023-03-02T08:49:15.936Z,102600.13
2023-03-02T08:51:45.497Z,102599.34
2023-03-02T08:54:12.991Z,102595.03
2023-03-02T08:56:41.429Z,102600.63
2023-03-02T08:59:13.398Z,102595.81
2023-03-02T09:01:42.637Z,102600.13
2023-03-02T09:04:11.237Z,102592.91
2023-03-02T09:06:41.636Z,102587.56
2023-03-02T09:09:12.542Z,102581.13
2023-03-02T09:11:42.115Z,102578.63
2023-03-02T09:14:09.504Z,102582.94
2023-03-02T09:16:36.550Z,102586.63
2023-03-02T09:19:04.332Z,102576.84
2023-03-02T09:21:31.652Z,102577.31
2023-03-02T09:23:59.408Z,102571.34
2023-03-02T09:26:28.095Z,102570.66
2023-03-02T09:28:55.464Z,102573.50
2023-03-02T09:31:23.049Z,102575.38
2023-03-02T09:33:50.120Z,102571.44
2023-03-02T09:36:21.925Z,102575.38
2023-03-02T09:38:49.413Z,102579.81
2023-03-02T09:41:42.594Z,102576.94
2023-03-02T09:44:41.529Z,102576.34
2023-03-02T09:47:34.561Z,102577.28
2023-03-02T09:50:25.297Z,102576.81
2023-03-02T09:53:13.568Z,102572.50
2023-03-02T09:55:40.521Z,102571.31
2023-03-02T09:58:17.732Z,102578.47
2023-03-02T10:00:46.627Z,102580.28
2023-03-02T10:03:20.253Z,102587.06
2023-03-02T10:05:50.446Z,102585.50
2023-03-02T10:08:20.991Z,102589.16
2023-03-02T10:10:59.694Z,102591.56
2023-03-02T10:13:36.050Z,102583.19
2023-03-02T10:16:17.049Z,102588.91
2023-03-02T10:18:49.230Z,102590.78
2023-03-02T10:21:24.909Z,102591.00
2023-03-02T10:24:02.281Z,102588.13
2023-03-02T10:26:41.551Z,102582.88
2023-03-02T10:29:32.811Z,102595.31
2023-03-02T10:32:13.827Z,102592.56
2023-03-02T10:34:40.926Z,102596.88
2023-03-02T10:37:14.701Z,102585.88
2023-03-02T10:39:41.995Z,102587.56
2023-03-02T10:42:17.853Z,102584.31
2023-03-02T10:44:50.807Z,102589.81
2023-03-02T10:47:24.267Z,102578.78
2023-03-02T10:49:52.550Z,102577.44
2023-03-02T10:52:22.402Z,102579.94
2023-03-02T10:54:49.914Z,102567.22
2023-03-02T10:57:36.887Z,102569.72
2023-03-02T11:00:23.130Z,102572.69
2023-03-02T11:02:59.062Z,102565.97
2023-03-02T11:05:33.238Z,102561.69
2023-03-02T11:08:03.711Z,102556.63
2023-03-02T11:10:34.380Z,102559.56
2023-03-02T11:13:03.557Z,102561.66
2023-03-02T11:15:44.618Z,102554.50
2023-03-02T11:18:25.008Z,102558.94
2023-03-02T11:20:57.400Z,102556.94
2023-03-02T11:23:36.734Z,102553.56
2023-03-02T11:26:14.727Z,102552.00
2023-03-02T11:28:49.107Z,102553.16
2023-03-02T11:31:29.670Z,102556.25
2023-03-02T11:34:20.431Z,102551.13
2023-03-02T11:37:03.537Z,102556.59
2023-03-02T11:39:56.974Z,102550.66
2023-03-02T11:42:31.039Z,102552.31
2023-03-02T11:45:14.034Z,102551.75
2023-03-02T11:47:54.287Z,102553.00
2023-03-02T11:50:26.115Z,102548.09
2023-03-02T11:52:59.279Z,102543.78
2023-03-02T11:55:31.506Z,102548.59
2023-03-02T11:58:03.209Z,102534.47
2023-03-02T12:00:35.754Z,102547.50
2023-03-02T12:03:06.880Z,102552.75
2023-03-02T12:05:37.359Z,102548.06
2023-03-02T12:08:08.171Z,102549.59
2023-03-02T12:10:39.944Z,102544.72
2023-03-02T12:13:17.498Z,102541.38
2023-03-02T12:15:47.646Z,102545.81
2023-03-02T12:18:44.720Z,102533.63
2023-03-02T12:21:18.146Z,102540.03
2023-03-02T12:24:04.053Z,102534.81
2023-03-02T12:26:36.490Z,102534.88
2023-03-02T12:29:22.523Z,102527.69
2023-03-02T12:31:52.920Z,102526.19
2023-03-02T12:34:36.459Z,102529.09
2023-03-02T12:37:14.360Z,102532.28
2023-03-02T12:40:17.156Z,102534.03
2023-03-02T12:42:59.418Z,102530.69
2023-03-02T12:45:46.207Z,102531.81
2023-03-02T12:48:30.216Z,102523.66
2023-03-02T12:51:02.928Z,102517.69
2023-03-02T12:53:30.321Z,102522.75
2023-03-02T12:55:57.655Z,102514.72
2023-03-02T12:58:28.105Z,102511.72
2023-03-02T13:00:59.043Z,102511.16
2023-03-02T13:03:30.210Z,102502.00
2023-03-02T13:06:14.924Z,102487.28
2023-03-02T13:08:45.568Z,102493.44
2023-03-02T13:11:12.967Z,102491.47
2023-03-02T13:13:43.167Z,102482.59
2023-03-02T13:16:22.822Z,102484.25
2023-03-02T13:18:56.679Z,102487.31
2023-03-02T13:21:32.904Z,102486.78
2023-03-02T13:24:00.887Z,102485.53
2023-03-02T13:26:31.601Z,102482.88
2023-03-02T13:29:05.622Z,102480.66
2023-03-02T13:31:34.403Z,102481.34
2023-03-02T13:34:01.757Z,102481.34
2023-03-02T13:36:37.301Z,102472.06
2023-03-02T13:39:08.946Z,102472.31
2023-03-02T13:41:37.540Z,102473.41
2023-03-02T13:44:19.701Z,102479.22
2023-03-02T13:46:47.805Z,102479.75
2023-03-02T13:49:27.713Z,102472.84
2023-03-02T13:52:07.072Z,102473.78
2023-03-02T13:54:37.723Z,102469.78
2023-03-02T13:57:06.483Z,102465.88
2023-03-02T13:59:36.517Z,102468.00
2023-03-02T14:02:03.797Z,102465.38
2023-03-02T14:04:30.805Z,102453.16
2023-03-02T14:06:59.346Z,102442.44
2023-03-02T14:09:27.246Z,102434.25
2023-03-02T14:11:56.930Z,102436.47
2023-03-02T14:14:27.760Z,102430.69
2023-03-02T14:16:54.991Z,102431.50
2023-03-02T14:19:21.947Z,102420.94
2023-03-02T14:21:48.936Z,102416.75
2023-03-02T14:24:17.220Z,102417.59
2023-03-02T14:26:47.751Z,102415.97
2023-03-02T14:29:23.050Z,102407.75
2023-03-02T14:31:50.401Z,102410.81
2023-03-02T14:34:21.452Z,102407.91
2023-03-02T14:36:54.434Z,102404.41
2023-03-02T14:39:30.328Z,102394.88
2023-03-02T14:41:57.460Z,102393.19
2023-03-02T14:44:24.579Z,102394.03
2023-03-02T14:46:52.803Z,102390.97
2023-03-02T14:49:20.343Z,102389.72
2023-03-02T14:51:57.386Z,102378.47
2023-03-02T14:54:26.676Z,102383.22
2023-03-02T14:56:54.038Z,102387.63
2023-03-02T14:59:21.095Z,102379.97
2023-03-02T15:01:48.052Z,102389.00
2023-03-02T15:04:15.003Z,102387.34
2023-03-02T15:06:43.728Z,102382.94
2023-03-02T15:09:11.347Z,102386.13
2023-03-02T15:11:39.781Z,102385.28
2023-03-02T15:14:07.717Z,102382.63
2023-03-02T15:16:34.844Z,102389.31
2023-03-02T15:19:01.857Z,102386.94
2023-03-02T15:21:28.804Z,102392.66
2023-03-02T15:23:55.780Z,102391.94
2023-03-02T15:26:22.743Z,102391.38
2023-03-02T15:28:52.125Z,102388.91
2023-03-02T15:31:19.463Z,102386.94
2023-03-02T15:33:46.708Z,102385.69
2023-03-02T15:36:14.456Z,102390.69
2023-03-02T15:38:53.070Z,102394.16
2023-03-02T15:41:20.100Z,102394.59
2023-03-02T15:43:52.165Z,102392.34
2023-03-02T15:46:19.592Z,102390.97
2023-03-02T15:48:46.564Z,102389.44
2023-03-02T15:51:14.082Z,102388.47
2023-03-02T15:53:41.034Z,102384.84
2023-03-02T15:56:10.732Z,102385.69
2023-03-02T15:58:37.950Z,102389.00
2023-03-02T16:01:10.926Z,102389.41
2023-03-02T16:03:38.180Z,102391.50
2023-03-02T16:06:07.175Z,102396.19
2023-03-02T16:08:34.502Z,102392.31
2023-03-02T16:11:05.637Z,102396.19
2023-03-02T16:13:33.483Z,102395.63
2023-03-02T16:16:01.488Z,102390.78
2023-03-02T16:18:30.509Z,102397.81
2023-03-02T16:20:57.589Z,102396.66
2023-03-02T16:23:24.790Z,102391.59
2023-03-02T16:25:52.240Z,102393.69
2023-03-02T16:28:19.919Z,102400.88
2023-03-02T16:30:52.326Z,102396.78
2023-03-02T16:33:19.472Z,102396.78
2023-03-02T16:35:49.353Z,102400.44
2023-03-02T16:38:17.269Z,102393.94
2023-03-02T16:40:44.324Z,102398.38
2023-03-02T16:43:11.262Z,102394.38
2023-03-02T16:45:38.569Z,102403.31
2023-03-02T16:48:06.853Z,102393.69
2023-03-02T16:50:33.837Z,102384.31
2023-03-02T16:53:02.694Z,102392.66
2023-03-02T16:55:30.091Z,102395.28
2023-03-02T16:57:57.171Z,102401.53
2023-03-02T17:00:25.309Z,102404.84
2023-03-02T17:02:53.957Z,102403.16
2023-03-02T17:05:21.742Z,102403.16
2023-03-02T17:07:49.527Z,102407.03
2023-03-02T17:10:21.625Z,102415.56
2023-03-02T17:12:48.852Z,102415.78
2023-03-02T17:15:16.302Z,102418.56
2023-03-02T17:17:43.315Z,102416.88
2023-03-02T17:20:13.280Z,102423.59
2023-03-02T17:22:40.204Z,102421.69
2023-03-02T17:25:08.926Z,102432.91
2023-03-02T17:27:37.266Z,102433.84
2023-03-02T17:30:05.837Z,102442.47
2023-03-02T17:32:32.934Z,102438.78
2023-03-02T17:34:59.990Z,102440.94
2023-03-02T17:37:28.253Z,102449.13
2023-03-02T17:39:55.354Z,102449.22
2023-03-02T17:42:22.735Z,102447.31
2023-03-02T17:44:51.183Z,102454.09
2023-03-02T17:47:19.086Z,102447.31
2023-03-02T17:49:46.119Z,102447.31
2023-03-02T17:52:15.420Z,102453.28
2023-03-02T17:54:43.763Z,102453.63
2023-03-02T17:57:12.187Z,102457.56
2023-03-02T17:59:39.226Z,102453.78
2023-03-02T18:02:08.070Z,102445.94
2023-03-02T18:04:35.120Z,102444.53
2023-03-02T18:07:06.754Z,102449.78
2023-03-02T18:09:34.034Z,102445.03
2023-03-02T18:12:02.477Z,102450.06
2023-03-02T18:14:30.641Z,102451.66
2023-03-02T18:16:58.118Z,102454.16
2023-03-02T18:19:26.433Z,102457.38
2023-03-02T18:21:53.990Z,102458.44
2023-03-02T18:24:21.071Z,102457.50
2023-03-02T18:26:48.002Z,102454.41
2023-03-02T18:29:15.419Z,102453.69
2023-03-02T18:31:42.458Z,102460.00
2023-03-02T18:34:09.859Z,102459.41
2023-03-02T18:36:38.148Z,102460.75
2023-03-02T18:39:05.180Z,102462.03
2023-03-02T18:41:32.505Z,102461.66
2023-03-02T18:44:01.242Z,102455.59
2023-03-02T18:46:30.690Z,102459.53
2023-03-02T18:49:00.485Z,102463.22
2023-03-02T18:51:28.405Z,102457.97
2023-03-02T18:53:57.241Z,102449.63
2023-03-02T18:56:24.556Z,102450.19
2023-03-02T18:58:52.471Z,102448.06
2023-03-02T19:01:20.564Z,102451.16
2023-03-02T19:03:49.005Z,102458.44
2023-03-02T19:06:16.721Z,102463.31
2023-03-02T19:08:44.126Z,102462.69
2023-03-02T19:11:12.466Z,102461.97
2023-03-02T19:13:39.524Z,102457.88
2023-03-02T19:16:07.505Z,102463.72
2023-03-02T19:18:34.565Z,102454.03
2023-03-02T19:21:04.186Z,102454.75
2023-03-02T19:23:31.878Z,102459.03
2023-03-02T19:25:58.922Z,102460.44
2023-03-02T19:28:27.525Z,102468.56
2023-03-02T19:30:54.487Z,102474.41
2023-03-02T19:33:24.610Z,102476.66
2023-03-02T19:35:51.979Z,102473.06
2023-03-02T19:38:19.216Z,102468.31
2023-03-02T19:40:46.414Z,102466.16
2023-03-02T19:43:13.370Z,102467.38
2023-03-02T19:45:41.795Z,102470.97
2023-03-02T19:48:13.428Z,102471.47
2023-03-02T19:50:40.992Z,102471.16
2023-03-02T19:53:09.797Z,102466.13
2023-03-02T19:55:36.937Z,102463.88
2023-03-02T19:58:05.099Z,102478.78
2023-03-02T20:00:33.483Z,102469.13
2023-03-02T20:03:02.060Z,102477.84
2023-03-02T20:05:29.188Z,102481.56
2023-03-02T20:07:56.305Z,102475.47
2023-03-02T20:10:31.180Z,102474.38
2023-03-02T20:12:59.627Z,102484.38
2023-03-02T20:15:27.781Z,102482.97
2023-03-02T20:17:54.888Z,102477.84
2023-03-02T20:20:24.602Z,102473.34
2023-03-02T20:22:51.525Z,102478.72
2023-03-02T20:25:20.126Z,102475.88
2023-03-02T20:27:48.989Z,102483.94
2023-03-02T20:30:22.928Z,102474.84
2023-03-02T20:32:50.057Z,102471.28
2023-03-02T20:35:17.629Z,102486.09
2023-03-02T20:37:46.861Z,102484.19
2023-03-02T20:40:16.543Z,102484.47
2023-03-02T20:42:44.652Z,102488.03
2023-03-02T20:45:13.761Z,102485.28
2023-03-02T20:47:42.461Z,102489.94
2023-03-02T20:50:14.555Z,102492.69
2023-03-02T20:52:41.749Z,102489.56
2023-03-02T20:55:11.762Z,102493.50
2023-03-02T20:57:39.717Z,102497.69
2023-03-02T21:00:14.622Z,102486.09
2023-03-02T21:02:42.372Z,102488.53
2023-03-02T21:05:09.829Z,102481.00
2023-03-02T21:07:36.875Z,102481.38
2023-03-02T21:10:07.895Z,102471.22
2023-03-02T21:12:36.328Z,102473.13
2023-03-02T21:15:04.529Z,102467.03
2023-03-02T21:17:31.448Z,102473.13
2023-03-02T21:19:58.932Z,102479.22
2023-03-02T21:22:25.845Z,102472.06
2023-03-02T21:24:53.003Z,102467.41
2023-03-02T21:27:20.993Z,102462.72
2023-03-02T21:29:49.508Z,102464.03
2023-03-02T21:32:16.641Z,102462.00
2023-03-02T21:34:44.829Z,102467.00
2023-03-02T21:37:12.200Z,102476.09
2023-03-02T21:39:39.219Z,102476.34
2023-03-02T21:42:06.197Z,102474.91
2023-03-02T21:44:33.109Z,102478.50
2023-03-02T21:47:01.321Z,102476.56
2023-03-02T21:49:28.392Z,102473.84
2023-03-02T21:51:55.381Z,102473.00
2023-03-02T21:54:22.460Z,102478.25
2023-03-02T21:56:49.471Z,102472.78
2023-03-02T21:59:16.734Z,102475.03
2023-03-02T22:01:43.937Z,102468.44
2023-03-02T22:04:12.327Z,102469.03
2023-03-02T22:06:39.267Z,102469.03
2023-03-02T22:09:06.182Z,102468.19
2023-03-02T22:11:36.245Z,102464.63
2023-03-02T22:14:12.206Z,102467.25
2023-03-02T22:16:41.697Z,102469.88
2023-03-02T22:19:25.512Z,102470.72
2023-03-02T22:21:55.239Z,102466.03
2023-03-02T22:24:24.977Z,102462.47
2023-03-02T22:27:00.574Z,102481.78
2023-03-02T22:29:30.048Z,102474.84
2023-03-02T22:32:15.494Z,102468.19
2023-03-02T22:34:45.984Z,102468.19
2023-03-02T22:37:17.496Z,102472.03
2023-03-02T22:39:45.982Z,102469.78
2023-03-02T22:42:16.969Z,102472.78
2023-03-02T22:44:47.419Z,102467.13
2023-03-02T22:47:18.359Z,102469.91
2023-03-02T22:49:50.598Z,102467.50
2023-03-02T22:52:24.062Z,102470.50
2023-03-02T22:54:51.616Z,102466.22
2023-03-02T22:57:31.123Z,102465.84
2023-03-02T23:00:30.555Z,102461.09
2023-03-02T23:02:57.618Z,102457.41
2023-03-02T23:05:30.136Z,102453.56
2023-03-02T23:08:17.110Z,102458.44
2023-03-02T23:10:44.638Z,102452.03
2023-03-02T23:13:13.703Z,102459.91
2023-03-02T23:15:41.510Z,102457.97
2023-03-02T23:18:18.528Z,102449.03
2023-03-02T23:20:47.104Z,102454.63
2023-03-02T23:23:14.024Z,102461.19
2023-03-02T23:25:41.334Z,102446.59
2023-03-02T23:28:08.346Z,102451.22
2023-03-02T23:30:35.263Z,102444.78
2023-03-02T23:33:02.299Z,102442.84
2023-03-02T23:35:29.203Z,102441.91
2023-03-02T23:37:58.525Z,102440.94
2023-03-02T23:40:25.468Z,102448.13
2023-03-02T23:42:52.372Z,102458.84
2023-03-02T23:45:19.439Z,102453.84
2023-03-02T23:47:46.364Z,102455.75
2023-03-02T23:50:13.473Z,102455.19
2023-03-02T23:52:41.230Z,102447.69
2023-03-02T23:55:11.273Z,102447.91
2023-03-02T23:57:38.202Z,102455.09
